TimeMDT,TemperatureF,Dew PointF,Humidity,Sea Level PressureIn,VisibilityMPH,Wind Direction,Wind SpeedMPH,Gust SpeedMPH,PrecipitationIn,Events,Conditions,WindDirDegrees,DateUTC
12:53 AM,52.0,9.0,18,29.87,10.0,South,11.5,-,N/A,,Clear,190,2012-10-09 06:53:00
3:53 AM,50.0,9.0,19,29.87,10.0,South,12.7,-,N/A,,Clear,190,2012-10-09 09:53:00
4:53 AM,51.1,9.0,18,29.88,9.0,SSW,10.4,-,N/A,,Clear,200,2012-10-09 10:53:00
5:53 AM,48.0,10.0,22,29.91,8.0,SW,8.1,-,N/A,,Clear,220,2012-10-09 11:53:00
6:53 AM,48.0,9.0,21,29.94,8.0,SW,9.2,-,N/A,,Clear,220,2012-10-09 12:53:00
7:53 AM,43.0,10.9,27,29.97,10.0,SSW,9.2,-,N/A,,Clear,200,2012-10-09 13:53:00
8:53 AM,50.0,12.0,22,29.99,9.0,SSW,5.8,-,N/A,,Clear,210,2012-10-09 14:53:00
9:53 AM,55.0,9.0,16,29.99,10.0,Calm,Calm,-,N/A,,Clear,0,2012-10-09 15:53:00
10:53 AM,57.9,10.9,16,29.98,10.0,Calm,Calm,-,N/A,,Clear,0,2012-10-09 16:53:00
11:53 AM,63.0,12.9,14,29.97,10.0,WNW,8.1,-,N/A,,Clear,300,2012-10-09 17:53:00
12:53 PM,64.9,14.0,14,29.96,10.0,West,8.1,-,N/A,,Clear,270,2012-10-09 18:53:00
1:53 PM,66.9,17.1,15,29.95,10.0,NW,10.4,-,N/A,,Clear,320,2012-10-09 19:53:00
2:53 PM,66.9,19.0,16,29.94,10.0,NNW,6.9,-,N/A,,Clear,340,2012-10-09 20:53:00
3:53 PM,68.0,17.1,14,29.93,10.0,Variable,4.6,-,N/A,,Clear,0,2012-10-09 21:53:00
4:53 PM,66.9,17.1,15,29.92,10.0,NW,5.8,-,N/A,,Clear,320,2012-10-09 22:53:00
5:53 PM,66.9,17.1,15,29.91,10.0,WNW,4.6,-,N/A,,Clear,290,2012-10-09 23:53:00
6:53 PM,57.0,19.9,24,29.94,10.0,SSW,4.6,-,N/A,,Clear,210,2012-10-10 00:53:00
7:53 PM,44.1,23.0,43,29.98,10.0,SW,4.6,-,N/A,,Clear,220,2012-10-10 01:53:00
8:53 PM,44.1,19.9,38,29.98,10.0,South,8.1,-,N/A,,Clear,180,2012-10-10 02:53:00
9:53 PM,45.0,18.0,34,29.98,10.0,South,9.2,-,N/A,,Clear,190,2012-10-10 03:53:00
10:53 PM,48.9,18.0,29,29.96,10.0,SSW,9.2,-,N/A,,Clear,200,2012-10-10 04:53:00
11:53 PM,48.0,16.0,28,29.95,10.0,South,12.7,-,N/A,,Clear,190,2012-10-10 05:53:00